createdAt,value
2022-10-07T00:01:07.175Z,8.74
2022-10-07T00:03:35.042Z,8.72
2022-10-07T00:06:03.895Z,8.70
2022-10-07T00:08:31.631Z,8.67
2022-10-07T00:11:04.785Z,8.65
2022-10-07T00:13:32.605Z,8.61
2022-10-07T00:16:11.573Z,8.62
2022-10-07T00:18:39.540Z,8.60
2022-10-07T00:21:09.386Z,8.59
2022-10-07T00:23:36.654Z,8.56
2022-10-07T00:26:06.418Z,8.55
2022-10-07T00:28:34.696Z,8.52
2022-10-07T00:31:04.445Z,8.50
2022-10-07T00:33:35.219Z,8.48
2022-10-07T00:36:06.270Z,8.48
2022-10-07T00:38:33.368Z,8.44
2022-10-07T00:41:00.444Z,8.45
2022-10-07T00:43:30.363Z,8.44
2022-10-07T00:46:11.585Z,8.43
2022-10-07T00:48:39.956Z,8.42
2022-10-07T00:51:10.213Z,8.46
2022-10-07T00:53:40.614Z,8.44
2022-10-07T00:56:08.998Z,8.46
2022-10-07T00:58:38.011Z,8.45
2022-10-07T01:01:07.082Z,8.44
2022-10-07T01:03:36.266Z,8.40
2022-10-07T01:06:04.989Z,8.42
2022-10-07T01:08:33.965Z,8.43
2022-10-07T01:11:26.981Z,8.41
2022-10-07T01:14:34.166Z,8.41
2022-10-07T01:17:09.606Z,8.42
2022-10-07T01:19:59.233Z,8.40
2022-10-07T01:22:44.347Z,8.39
2022-10-07T01:25:28.885Z,8.36
2022-10-07T01:28:09.238Z,8.35
2022-10-07T01:30:41.952Z,8.33
2022-10-07T01:33:19.193Z,8.30
2022-10-07T01:35:51.104Z,8.28
2022-10-07T01:38:22.505Z,8.26
2022-10-07T01:40:57.135Z,8.26
2022-10-07T01:43:25.374Z,8.25
2022-10-07T01:45:55.156Z,8.23
2022-10-07T01:48:22.524Z,8.20
2022-10-07T01:50:52.252Z,8.19
2022-10-07T01:53:51.185Z,8.18
2022-10-07T01:56:21.278Z,8.17
2022-10-07T01:58:54.971Z,8.17
2022-10-07T02:01:32.567Z,8.16
2022-10-07T02:04:06.409Z,8.13
2022-10-07T02:06:48.942Z,8.13
2022-10-07T02:09:32.258Z,8.11
2022-10-07T02:12:15.523Z,8.08
2022-10-07T02:15:15.760Z,8.05
2022-10-07T02:17:56.687Z,8.03
2022-10-07T02:20:29.131Z,8.03
2022-10-07T02:23:00.358Z,8.03
2022-10-07T02:25:30.326Z,8.01
2022-10-07T02:27:58.630Z,8.00
2022-10-07T02:30:27.195Z,7.99
2022-10-07T02:32:59.665Z,7.98
2022-10-07T02:35:35.222Z,7.97
2022-10-07T02:38:08.136Z,7.94
2022-10-07T02:40:39.457Z,7.94
2022-10-07T02:43:15.746Z,7.94
2022-10-07T02:46:03.315Z,7.94
2022-10-07T02:48:39.505Z,7.94
2022-10-07T02:51:11.143Z,7.92
2022-10-07T02:53:40.898Z,7.97
2022-10-07T02:56:08.748Z,8.01
2022-10-07T02:58:36.556Z,8.02
2022-10-07T03:01:06.033Z,8.05
2022-10-07T03:03:33.370Z,8.09
2022-10-07T03:06:05.227Z,8.07
2022-10-07T03:08:33.686Z,8.05
2022-10-07T03:11:01.735Z,8.04
2022-10-07T03:13:31.367Z,8.05
2022-10-07T03:16:05.568Z,8.06
2022-10-07T03:18:33.451Z,7.93
2022-10-07T03:21:16.528Z,7.92
2022-10-07T03:23:44.562Z,7.91
2022-10-07T03:26:12.953Z,7.92
2022-10-07T03:28:40.269Z,7.92
2022-10-07T03:31:10.214Z,7.94
2022-10-07T03:33:42.286Z,7.93
2022-10-07T03:36:10.264Z,7.92
2022-10-07T03:38:40.383Z,7.93
2022-10-07T03:41:09.404Z,7.91
2022-10-07T03:43:36.413Z,7.91
2022-10-07T03:46:05.860Z,7.90
2022-10-07T03:48:36.721Z,7.92
2022-10-07T03:51:04.399Z,7.94
2022-10-07T03:53:34.543Z,7.95
2022-10-07T03:56:02.816Z,7.98
2022-10-07T03:58:31.175Z,7.99
2022-10-07T04:01:10.287Z,7.96
2022-10-07T04:03:41.316Z,7.94
2022-10-07T04:06:09.673Z,7.92
2022-10-07T04:08:39.119Z,7.87
2022-10-07T04:11:07.447Z,7.88
2022-10-07T04:13:37.496Z,7.88
2022-10-07T04:16:08.357Z,7.88
2022-10-07T04:18:36.242Z,7.86
2022-10-07T04:21:03.857Z,7.85
2022-10-07T04:23:32.898Z,7.85
2022-10-07T04:26:00.926Z,7.83
2022-10-07T04:28:28.748Z,7.85
2022-10-07T04:31:07.346Z,7.84
2022-10-07T04:33:41.436Z,7.85
2022-10-07T04:36:11.627Z,7.85
2022-10-07T04:38:50.580Z,7.84
2022-10-07T04:41:21.988Z,7.86
2022-10-07T04:43:57.674Z,7.84
2022-10-07T04:46:28.819Z,7.86
2022-10-07T04:49:07.233Z,7.83
2022-10-07T04:51:34.395Z,7.80
2022-10-07T04:54:01.696Z,7.78
2022-10-07T04:56:35.215Z,7.76
2022-10-07T04:59:06.007Z,7.76
2022-10-07T05:01:33.669Z,7.74
2022-10-07T05:04:00.808Z,7.70
2022-10-07T05:06:28.873Z,7.69
2022-10-07T05:08:56.810Z,7.72
2022-10-07T05:11:26.152Z,7.75
2022-10-07T05:14:06.775Z,7.76
2022-10-07T05:16:35.434Z,7.75
2022-10-07T05:19:04.328Z,7.71
2022-10-07T05:21:34.009Z,7.65
2022-10-07T05:24:04.467Z,7.63
2022-10-07T05:26:35.978Z,7.64
2022-10-07T05:29:04.795Z,7.70
2022-10-07T05:31:38.036Z,7.71
2022-10-07T05:34:07.181Z,7.74
2022-10-07T05:36:35.520Z,7.69
2022-10-07T05:39:05.697Z,7.68
2022-10-07T05:42:13.562Z,7.68
2022-10-07T05:44:46.463Z,7.66
2022-10-07T05:47:14.451Z,7.65
2022-10-07T05:49:41.745Z,7.68
2022-10-07T05:52:09.878Z,7.62
2022-10-07T05:54:37.412Z,7.56
2022-10-07T05:57:04.742Z,7.55
2022-10-07T05:59:33.155Z,7.54
2022-10-07T06:02:01.163Z,7.52
2022-10-07T06:04:29.500Z,7.52
2022-10-07T06:06:57.107Z,7.53
2022-10-07T06:09:42.777Z,7.59
2022-10-07T06:12:33.345Z,7.66
2022-10-07T06:15:05.143Z,7.71
2022-10-07T06:17:32.738Z,7.75
2022-10-07T06:20:02.512Z,7.71
2022-10-07T06:22:30.116Z,7.71
2022-10-07T06:24:59.133Z,7.73
2022-10-07T06:27:26.671Z,7.77
2022-10-07T06:29:54.883Z,7.81
2022-10-07T06:32:22.375Z,7.85
2022-10-07T06:34:50.534Z,7.87
2022-10-07T06:37:18.188Z,7.94
2022-10-07T06:39:46.048Z,8.00
2022-10-07T06:42:13.443Z,8.06
2022-10-07T06:44:59.416Z,8.09
2022-10-07T06:47:27.027Z,8.13
2022-10-07T06:49:54.177Z,8.18
2022-10-07T06:52:21.635Z,8.27
2022-10-07T06:54:48.626Z,8.35
2022-10-07T06:57:43.709Z,8.43
2022-10-07T07:00:05.356Z,8.54
2022-10-07T07:02:33.759Z,8.68
2022-10-07T07:05:04.859Z,8.84
2022-10-07T07:07:33.415Z,8.97
2022-10-07T07:10:01.011Z,9.10
2022-10-07T07:12:30.165Z,9.27
2022-10-07T07:14:57.362Z,9.44
2022-10-07T07:17:25.377Z,9.58
2022-10-07T07:19:53.305Z,9.88
2022-10-07T07:22:20.857Z,10.13
2022-10-07T07:24:49.682Z,10.44
2022-10-07T07:27:17.117Z,10.32
2022-10-07T07:29:45.834Z,10.39
2022-10-07T07:32:13.604Z,10.52
2022-10-07T07:34:43.659Z,10.55
2022-10-07T07:37:15.682Z,10.66
2022-10-07T07:39:47.504Z,10.83
2022-10-07T07:42:18.603Z,10.96
2022-10-07T07:44:45.903Z,11.02
2022-10-07T07:47:17.284Z,11.09
2022-10-07T07:49:46.244Z,11.18
2022-10-07T07:52:20.754Z,11.37
2022-10-07T07:54:48.861Z,11.49
2022-10-07T07:57:16.184Z,11.78
2022-10-07T07:59:43.508Z,12.15
2022-10-07T08:02:12.686Z,12.13
2022-10-07T08:04:42.937Z,12.16
2022-10-07T08:07:13.627Z,12.19
2022-10-07T08:09:44.287Z,12.26
2022-10-07T08:12:14.893Z,12.37
2022-10-07T08:14:43.487Z,12.45
2022-10-07T08:17:12.339Z,12.57
2022-10-07T08:19:41.030Z,12.60
2022-10-07T08:22:09.715Z,12.73
2022-10-07T08:24:37.951Z,12.79
2022-10-07T08:27:09.812Z,12.90
2022-10-07T08:29:38.286Z,12.99
2022-10-07T08:32:06.742Z,13.20
2022-10-07T08:34:35.242Z,13.46
2022-10-07T08:37:02.394Z,13.61
2022-10-07T08:39:31.349Z,13.79
2022-10-07T08:41:58.695Z,13.92
2022-10-07T08:44:32.607Z,14.11
2022-10-07T08:47:08.766Z,14.49
2022-10-07T08:50:04.627Z,14.90
2022-10-07T08:52:37.487Z,14.94
2022-10-07T08:55:19.792Z,15.09
2022-10-07T08:58:04.527Z,15.18
2022-10-07T09:00:42.890Z,15.31
2022-10-07T09:03:15.978Z,15.58
2022-10-07T09:05:47.349Z,15.83
2022-10-07T09:08:30.536Z,15.93
2022-10-07T09:11:15.946Z,15.99
2022-10-07T09:13:50.488Z,16.21
2022-10-07T09:16:36.429Z,16.57
2022-10-07T09:19:04.359Z,16.87
2022-10-07T09:21:43.938Z,17.15
2022-10-07T09:24:29.453Z,17.19
2022-10-07T09:27:01.610Z,17.53
2022-10-07T09:29:30.835Z,17.98
2022-10-07T09:31:58.731Z,17.76
2022-10-07T09:34:29.415Z,17.82
2022-10-07T09:37:17.813Z,17.95
2022-10-07T09:39:46.491Z,18.17
2022-10-07T09:42:27.643Z,18.21
2022-10-07T09:44:57.542Z,18.29
2022-10-07T09:47:27.761Z,18.21
2022-10-07T09:49:59.982Z,18.41
2022-10-07T09:52:30.079Z,18.60
2022-10-07T09:55:18.835Z,18.76
2022-10-07T09:58:02.720Z,18.73
2022-10-07T10:00:30.898Z,18.89
2022-10-07T10:03:06.545Z,18.98
2022-10-07T10:05:37.822Z,19.10
2022-10-07T10:08:27.208Z,19.81
2022-10-07T10:10:56.696Z,20.66
2022-10-07T10:13:26.094Z,20.64
2022-10-07T10:15:53.807Z,19.87
2022-10-07T10:18:27.050Z,19.78
2022-10-07T10:20:54.702Z,19.87
2022-10-07T10:23:39.259Z,19.94
2022-10-07T10:26:31.114Z,19.85
2022-10-07T10:29:19.008Z,19.82
2022-10-07T10:32:04.977Z,19.56
2022-10-07T10:35:14.214Z,19.45
2022-10-07T10:37:41.446Z,19.65
2022-10-07T10:40:56.234Z,19.72
2022-10-07T10:43:25.986Z,19.92
2022-10-07T10:46:02.448Z,20.42
2022-10-07T10:48:42.956Z,20.26
2022-10-07T10:51:44.379Z,19.77
2022-10-07T10:54:23.882Z,19.69
2022-10-07T10:56:54.373Z,19.47
2022-10-07T10:59:48.197Z,19.49
2022-10-07T11:02:26.710Z,19.15
2022-10-07T11:04:59.770Z,19.17
2022-10-07T11:07:33.369Z,19.35
2022-10-07T11:10:07.362Z,19.40
2022-10-07T11:12:40.835Z,19.59
2022-10-07T11:15:21.908Z,19.70
2022-10-07T11:17:53.597Z,19.48
2022-10-07T11:20:30.057Z,19.49
2022-10-07T11:23:14.211Z,19.46
2022-10-07T11:26:03.207Z,19.60
2022-10-07T11:28:40.843Z,21.07
2022-10-07T11:31:37.065Z,20.37
2022-10-07T11:34:35.956Z,20.10
2022-10-07T11:37:21.929Z,20.11
2022-10-07T11:39:53.878Z,19.88
2022-10-07T11:42:28.559Z,19.90
2022-10-07T11:45:00.487Z,20.14
2022-10-07T11:47:40.703Z,21.22
2022-10-07T11:50:20.233Z,21.09
2022-10-07T11:52:51.420Z,20.39
2022-10-07T11:55:39.952Z,21.72
2022-10-07T11:58:34.554Z,20.15
2022-10-07T12:01:26.638Z,20.15
2022-10-07T12:04:32.753Z,19.82
2022-10-07T12:07:30.472Z,20.10
2022-10-07T12:10:10.033Z,19.95
2022-10-07T12:12:44.087Z,19.63
2022-10-07T12:15:29.738Z,19.35
2022-10-07T12:18:19.978Z,19.12
2022-10-07T12:20:50.138Z,18.91
2022-10-07T12:23:20.954Z,18.85
2022-10-07T12:26:01.062Z,19.15
2022-10-07T12:28:48.904Z,19.16
2022-10-07T12:31:16.307Z,18.89
2022-10-07T12:33:46.508Z,18.60
2022-10-07T12:36:26.453Z,19.31
2022-10-07T12:38:59.986Z,18.75
2022-10-07T12:41:40.040Z,18.94
2022-10-07T12:44:36.774Z,19.10
2022-10-07T12:47:15.067Z,18.31
2022-10-07T12:50:00.517Z,18.33
2022-10-07T12:52:43.375Z,18.33
2022-10-07T12:55:21.977Z,18.32
2022-10-07T12:57:53.015Z,18.05
2022-10-07T13:00:26.443Z,18.03
2022-10-07T13:03:39.063Z,17.94
2022-10-07T13:06:06.221Z,18.01
2022-10-07T13:08:48.716Z,17.85
2022-10-07T13:11:48.373Z,17.83
2022-10-07T13:14:17.893Z,18.12
2022-10-07T13:16:57.256Z,18.19
2022-10-07T13:19:43.086Z,18.02
2022-10-07T13:22:16.137Z,17.88
2022-10-07T13:24:50.469Z,17.86
2022-10-07T13:27:25.566Z,17.82
2022-10-07T13:29:59.273Z,18.48
2022-10-07T13:32:31.790Z,17.94
2022-10-07T13:35:01.625Z,17.79
2022-10-07T13:37:32.887Z,17.62
2022-10-07T13:40:19.762Z,17.69
2022-10-07T13:42:54.740Z,17.61
2022-10-07T13:45:22.854Z,17.62
2022-10-07T13:47:52.867Z,17.77
2022-10-07T13:50:30.965Z,18.40
2022-10-07T13:53:00.223Z,17.84
2022-10-07T13:55:32.751Z,17.58
2022-10-07T13:58:04.552Z,17.57
2022-10-07T14:00:33.904Z,17.60
2022-10-07T14:03:03.673Z,17.56
2022-10-07T14:05:32.003Z,17.68
2022-10-07T14:08:11.111Z,17.61
2022-10-07T14:10:53.125Z,18.12
2022-10-07T14:13:20.599Z,18.41
2022-10-07T14:15:52.090Z,17.83
2022-10-07T14:18:19.555Z,17.53
2022-10-07T14:21:07.246Z,17.44
2022-10-07T14:23:36.383Z,17.50
2022-10-07T14:26:05.916Z,17.49
2022-10-07T14:28:40.063Z,17.30
2022-10-07T14:31:26.339Z,17.25
2022-10-07T14:34:31.663Z,17.15
2022-10-07T14:37:10.648Z,17.14
2022-10-07T14:39:43.301Z,17.15
2022-10-07T14:42:38.756Z,18.04
2022-10-07T14:45:08.490Z,17.46
2022-10-07T14:47:38.259Z,17.25
2022-10-07T14:50:06.874Z,17.24
2022-10-07T14:52:52.321Z,17.15
2022-10-07T14:55:24.321Z,17.10
2022-10-07T14:57:51.611Z,16.98
2022-10-07T15:00:21.795Z,16.97
2022-10-07T15:02:54.721Z,16.89
2022-10-07T15:05:23.137Z,17.36
2022-10-07T15:07:51.100Z,17.32
2022-10-07T15:10:23.601Z,16.78
2022-10-07T15:12:50.733Z,16.53
2022-10-07T15:15:18.439Z,16.50
2022-10-07T15:17:45.938Z,16.54
2022-10-07T15:20:15.333Z,16.62
2022-10-07T15:22:44.355Z,16.54
2022-10-07T15:25:13.082Z,16.52
2022-10-07T15:27:40.473Z,16.50
2022-10-07T15:30:08.558Z,16.46
2022-10-07T15:32:36.246Z,16.46
2022-10-07T15:35:03.954Z,16.51
2022-10-07T15:37:32.514Z,16.59
2022-10-07T15:40:00.281Z,16.51
2022-10-07T15:42:28.169Z,17.51
2022-10-07T15:44:56.551Z,17.12
2022-10-07T15:47:23.914Z,16.54
2022-10-07T15:49:51.324Z,16.29
2022-10-07T15:52:19.092Z,16.27
2022-10-07T15:54:46.785Z,16.12
2022-10-07T15:57:14.665Z,16.15
2022-10-07T15:59:42.449Z,16.08
2022-10-07T16:02:17.904Z,16.06
2022-10-07T16:04:47.448Z,15.90
2022-10-07T16:07:15.680Z,15.80
2022-10-07T16:09:42.942Z,16.12
2022-10-07T16:12:10.000Z,16.30
2022-10-07T16:14:38.996Z,15.79
2022-10-07T16:17:06.126Z,15.63
2022-10-07T16:19:34.436Z,15.51
2022-10-07T16:22:01.936Z,15.53
2022-10-07T16:24:34.768Z,15.41
2022-10-07T16:27:02.616Z,15.20
2022-10-07T16:29:48.766Z,15.06
2022-10-07T16:32:16.140Z,15.01
2022-10-07T16:34:44.674Z,14.97
2022-10-07T16:37:12.764Z,14.81
2022-10-07T16:39:40.271Z,14.71
2022-10-07T16:42:07.776Z,14.75
2022-10-07T16:44:35.590Z,15.22
2022-10-07T16:47:03.978Z,14.83
2022-10-07T16:49:31.384Z,14.65
2022-10-07T16:52:00.244Z,14.60
2022-10-07T16:54:32.610Z,14.50
2022-10-07T16:56:59.948Z,14.44
2022-10-07T16:59:27.262Z,14.28
2022-10-07T17:01:56.793Z,14.20
2022-10-07T17:04:25.379Z,14.19
2022-10-07T17:06:54.361Z,14.18
2022-10-07T17:09:24.867Z,14.11
2022-10-07T17:11:56.969Z,14.03
2022-10-07T17:14:24.905Z,13.92
2022-10-07T17:16:57.336Z,13.87
2022-10-07T17:19:27.366Z,13.82
2022-10-07T17:21:56.294Z,14.20
2022-10-07T17:24:24.587Z,13.97
2022-10-07T17:26:55.365Z,13.74
2022-10-07T17:29:26.490Z,13.65
2022-10-07T17:31:54.481Z,13.57
2022-10-07T17:34:22.904Z,13.53
2022-10-07T17:36:51.028Z,13.56
2022-10-07T17:39:21.461Z,13.53
2022-10-07T17:41:49.086Z,13.45
2022-10-07T17:44:16.906Z,13.39
2022-10-07T17:46:44.473Z,13.36
2022-10-07T17:49:13.633Z,13.32
2022-10-07T17:51:44.603Z,13.27
2022-10-07T17:54:13.701Z,13.23
2022-10-07T17:56:43.615Z,13.17
2022-10-07T17:59:12.483Z,13.09
2022-10-07T18:01:42.768Z,13.06
2022-10-07T18:04:15.066Z,13.26
2022-10-07T18:06:44.014Z,13.30
2022-10-07T18:09:18.706Z,13.00
2022-10-07T18:12:04.941Z,12.86
2022-10-07T18:14:53.714Z,12.79
2022-10-07T18:17:22.374Z,12.73
2022-10-07T18:19:49.665Z,12.70
2022-10-07T18:22:17.374Z,12.67
2022-10-07T18:24:49.428Z,12.63
2022-10-07T18:27:16.779Z,12.60
2022-10-07T18:29:44.222Z,12.57
2022-10-07T18:32:11.565Z,12.53
2022-10-07T18:34:39.193Z,12.51
2022-10-07T18:37:06.707Z,12.66
2022-10-07T18:39:34.039Z,12.97
2022-10-07T18:42:07.626Z,12.64
2022-10-07T18:44:34.832Z,12.52
2022-10-07T18:47:02.026Z,12.48
2022-10-07T18:49:29.379Z,12.46
2022-10-07T18:51:56.918Z,12.40
2022-10-07T18:54:24.348Z,12.39
2022-10-07T18:56:51.972Z,12.36
2022-10-07T18:59:20.251Z,12.37
2022-10-07T19:01:50.534Z,12.35
2022-10-07T19:04:18.958Z,12.35
2022-10-07T19:06:51.638Z,12.32
2022-10-07T19:09:21.240Z,12.28
2022-10-07T19:11:49.108Z,12.23
2022-10-07T19:14:16.975Z,12.18
2022-10-07T19:16:46.749Z,12.16
2022-10-07T19:19:17.360Z,12.13
2022-10-07T19:21:48.330Z,12.08
2022-10-07T19:24:16.358Z,12.07
2022-10-07T19:26:50.138Z,12.07
2022-10-07T19:29:18.229Z,12.35
2022-10-07T19:31:49.939Z,12.22
2022-10-07T19:34:22.409Z,12.09
2022-10-07T19:36:50.195Z,12.03
2022-10-07T19:39:23.820Z,12.00
2022-10-07T19:41:51.389Z,11.98
2022-10-07T19:44:18.774Z,11.96
2022-10-07T19:46:45.992Z,11.95
2022-10-07T19:49:13.166Z,11.92
2022-10-07T19:51:42.097Z,11.93
2022-10-07T19:54:10.898Z,11.91
2022-10-07T19:56:39.598Z,11.88
2022-10-07T19:59:09.190Z,11.86
2022-10-07T20:01:39.585Z,11.80
2022-10-07T20:04:10.666Z,11.77
2022-10-07T20:06:38.493Z,12.10
2022-10-07T20:09:08.159Z,11.96
2022-10-07T20:11:36.033Z,11.82
2022-10-07T20:14:06.088Z,11.75
2022-10-07T20:16:36.032Z,11.75
2022-10-07T20:19:06.057Z,11.73
2022-10-07T20:21:36.317Z,11.71
2022-10-07T20:24:04.820Z,11.68
2022-10-07T20:26:34.863Z,11.66
2022-10-07T20:29:04.495Z,11.65
2022-10-07T20:31:40.512Z,11.65
2022-10-07T20:34:15.250Z,11.63
2022-10-07T20:36:42.723Z,11.64
2022-10-07T20:39:39.213Z,11.60
2022-10-07T20:42:24.585Z,11.56
2022-10-07T20:44:53.149Z,11.57
2022-10-07T20:47:22.279Z,11.55
2022-10-07T20:49:52.455Z,11.52
2022-10-07T20:52:24.482Z,11.52
2022-10-07T20:54:53.049Z,11.50
2022-10-07T20:57:22.880Z,11.48
2022-10-07T20:59:50.817Z,11.45
2022-10-07T21:02:20.782Z,11.42
2022-10-07T21:04:50.626Z,11.41
2022-10-07T21:07:19.015Z,11.42
2022-10-07T21:09:47.171Z,11.43
2022-10-07T21:12:15.920Z,11.44
2022-10-07T21:14:44.496Z,11.64
2022-10-07T21:17:12.352Z,11.42
2022-10-07T21:19:40.325Z,11.35
2022-10-07T21:22:08.331Z,11.31
2022-10-07T21:24:35.781Z,11.29
2022-10-07T21:27:05.143Z,11.29
2022-10-07T21:29:37.533Z,11.27
2022-10-07T21:32:07.192Z,11.28
2022-10-07T21:34:34.733Z,11.25
2022-10-07T21:37:02.983Z,11.22
2022-10-07T21:39:32.853Z,11.21
2022-10-07T21:42:00.046Z,11.21
2022-10-07T21:44:28.798Z,11.24
2022-10-07T21:46:56.205Z,11.21
2022-10-07T21:49:23.704Z,11.17
2022-10-07T21:51:50.840Z,11.16
2022-10-07T21:54:18.001Z,11.14
2022-10-07T21:56:46.417Z,11.34
2022-10-07T21:59:14.992Z,11.29
2022-10-07T22:01:43.290Z,11.18
2022-10-07T22:04:16.679Z,11.13
2022-10-07T22:07:02.567Z,11.12
2022-10-07T22:09:31.435Z,11.12
2022-10-07T22:11:58.919Z,11.09
2022-10-07T22:14:26.164Z,11.09
2022-10-07T22:16:53.739Z,11.07
2022-10-07T22:19:22.504Z,11.07
2022-10-07T22:21:49.811Z,11.06
2022-10-07T22:24:17.182Z,11.06
2022-10-07T22:26:47.237Z,11.04
2022-10-07T22:29:18.897Z,11.02
2022-10-07T22:31:47.280Z,11.01
2022-10-07T22:34:33.610Z,11.03
2022-10-07T22:37:01.906Z,11.03
2022-10-07T22:39:29.663Z,11.00
2022-10-07T22:42:01.319Z,11.02
2022-10-07T22:44:28.857Z,11.03
2022-10-07T22:46:56.921Z,11.00
2022-10-07T22:49:29.324Z,11.01
2022-10-07T22:51:59.103Z,10.98
2022-10-07T22:54:27.001Z,10.98
2022-10-07T22:56:54.116Z,10.95
2022-10-07T22:59:21.386Z,10.94
2022-10-07T23:01:48.422Z,10.92
2022-10-07T23:04:15.980Z,10.91
2022-10-07T23:06:43.081Z,10.90
2022-10-07T23:09:10.171Z,10.90
2022-10-07T23:11:37.404Z,10.90
2022-10-07T23:14:05.712Z,10.87
2022-10-07T23:16:34.306Z,10.90
2022-10-07T23:19:01.496Z,10.92
2022-10-07T23:21:33.325Z,10.90
2022-10-07T23:24:06.309Z,10.94
2022-10-07T23:26:34.759Z,10.95
2022-10-07T23:29:02.504Z,10.97
2022-10-07T23:31:32.246Z,10.94
2022-10-07T23:34:00.812Z,10.96
2022-10-07T23:36:28.460Z,10.96
2022-10-07T23:38:55.783Z,10.94
2022-10-07T23:41:26.662Z,10.91
2022-10-07T23:43:59.263Z,10.91
2022-10-07T23:46:28.006Z,10.91
2022-10-07T23:48:56.281Z,10.87
2022-10-07T23:51:26.313Z,10.87
2022-10-07T23:53:56.333Z,10.86
2022-10-07T23:56:23.943Z,10.86
2022-10-07T23:58:51.369Z,10.86
